sensor_id;sensor_type;location;lat;lon;timestamp;pressure;altitude;pressure_sealevel;temperature;humidity
64200;BME280;50516;52.272;5.136;2024-03-29T00:00:33;98952.22;;;9.63;72.07
64200;BME280;50516;52.272;5.136;2024-03-29T00:02:59;98949.50;;;9.63;72.24
64200;BME280;50516;52.272;5.136;2024-03-29T00:05:25;98956.34;;;9.52;73.00
64200;BME280;50516;52.272;5.136;2024-03-29T00:07:50;98954.31;;;9.58;72.61
64200;BME280;50516;52.272;5.136;2024-03-29T00:10:15;98947.94;;;9.71;72.36
64200;BME280;50516;52.272;5.136;2024-03-29T00:12:40;98951.59;;;9.66;72.35
64200;BME280;50516;52.272;5.136;2024-03-29T00:15:06;98956.28;;;9.66;72.22
64200;BME280;50516;52.272;5.136;2024-03-29T00:17:32;98961.94;;;9.69;72.35
64200;BME280;50516;52.272;5.136;2024-03-29T00:19:58;98952.78;;;9.74;71.64
64200;BME280;50516;52.272;5.136;2024-03-29T00:22:23;98959.78;;;9.58;72.08
64200;BME280;50516;52.272;5.136;2024-03-29T00:24:48;98955.41;;;9.57;72.67
64200;BME280;50516;52.272;5.136;2024-03-29T00:27:13;98955.84;;;9.50;72.82
64200;BME280;50516;52.272;5.136;2024-03-29T00:29:39;98954.22;;;9.49;72.78
64200;BME280;50516;52.272;5.136;2024-03-29T00:32:05;98958.97;;;9.57;72.29
64200;BME280;50516;52.272;5.136;2024-03-29T00:34:30;98959.03;;;9.43;72.40
64200;BME280;50516;52.272;5.136;2024-03-29T00:36:55;98965.44;;;9.61;71.96
64200;BME280;50516;52.272;5.136;2024-03-29T00:39:21;98969.28;;;9.60;72.25
64200;BME280;50516;52.272;5.136;2024-03-29T00:41:46;98977.38;;;9.65;71.71
64200;BME280;50516;52.272;5.136;2024-03-29T00:44:11;98973.97;;;9.60;72.38
64200;BME280;50516;52.272;5.136;2024-03-29T00:46:37;98969.06;;;9.71;71.68
64200;BME280;50516;52.272;5.136;2024-03-29T00:49:02;98971.50;;;9.72;72.01
64200;BME280;50516;52.272;5.136;2024-03-29T00:51:27;98977.66;;;9.55;71.75
64200;BME280;50516;52.272;5.136;2024-03-29T00:53:52;98977.03;;;9.58;71.88
64200;BME280;50516;52.272;5.136;2024-03-29T00:56:20;98974.94;;;9.64;71.77
64200;BME280;50516;52.272;5.136;2024-03-29T00:58:45;98974.28;;;9.58;71.99
64200;BME280;50516;52.272;5.136;2024-03-29T01:01:11;98984.75;;;9.56;72.14
64200;BME280;50516;52.272;5.136;2024-03-29T01:03:36;98983.06;;;9.46;72.29
64200;BME280;50516;52.272;5.136;2024-03-29T01:06:01;98978.53;;;9.42;72.26
64200;BME280;50516;52.272;5.136;2024-03-29T01:08:27;98977.63;;;9.32;72.88
64200;BME280;50516;52.272;5.136;2024-03-29T01:10:52;98974.28;;;9.36;72.38
64200;BME280;50516;52.272;5.136;2024-03-29T01:13:18;98981.00;;;9.29;73.21
64200;BME280;50516;52.272;5.136;2024-03-29T01:15:44;98976.41;;;9.39;72.71
64200;BME280;50516;52.272;5.136;2024-03-29T01:18:09;98980.56;;;9.36;72.84
64200;BME280;50516;52.272;5.136;2024-03-29T01:20:35;98979.13;;;9.39;72.13
64200;BME280;50516;52.272;5.136;2024-03-29T01:23:01;98976.63;;;9.28;72.88
64200;BME280;50516;52.272;5.136;2024-03-29T01:25:26;98973.78;;;9.34;72.33
64200;BME280;50516;52.272;5.136;2024-03-29T01:27:52;98968.66;;;9.41;72.10
64200;BME280;50516;52.272;5.136;2024-03-29T01:30:18;98981.94;;;9.47;72.67
64200;BME280;50516;52.272;5.136;2024-03-29T01:32:43;98981.13;;;9.47;72.54
64200;BME280;50516;52.272;5.136;2024-03-29T01:35:09;98975.66;;;9.47;72.25
64200;BME280;50516;52.272;5.136;2024-03-29T01:37:34;98978.53;;;9.42;72.25
64200;BME280;50516;52.272;5.136;2024-03-29T01:40:00;98981.41;;;9.23;72.78
64200;BME280;50516;52.272;5.136;2024-03-29T01:42:25;98977.13;;;9.30;72.78
64200;BME280;50516;52.272;5.136;2024-03-29T01:44:50;98973.19;;;9.23;72.55
64200;BME280;50516;52.272;5.136;2024-03-29T01:47:17;98969.06;;;9.25;72.96
64200;BME280;50516;52.272;5.136;2024-03-29T01:49:43;98952.94;;;9.24;72.60
64200;BME280;50516;52.272;5.136;2024-03-29T01:52:09;98957.03;;;9.35;72.58
64200;BME280;50516;52.272;5.136;2024-03-29T01:54:34;98944.16;;;9.36;72.40
64200;BME280;50516;52.272;5.136;2024-03-29T01:57:00;98959.25;;;9.33;72.60
64200;BME280;50516;52.272;5.136;2024-03-29T01:59:25;98942.66;;;9.29;73.04
64200;BME280;50516;52.272;5.136;2024-03-29T02:01:52;98944.28;;;9.30;72.85
64200;BME280;50516;52.272;5.136;2024-03-29T02:04:18;98934.75;;;9.28;73.51
64200;BME280;50516;52.272;5.136;2024-03-29T02:06:44;98940.03;;;9.24;73.37
64200;BME280;50516;52.272;5.136;2024-03-29T02:09:10;98936.72;;;9.36;73.54
64200;BME280;50516;52.272;5.136;2024-03-29T02:11:35;98942.03;;;9.32;72.96
64200;BME280;50516;52.272;5.136;2024-03-29T02:14:00;98943.03;;;9.37;72.82
64200;BME280;50516;52.272;5.136;2024-03-29T02:16:26;98945.88;;;9.31;72.97
64200;BME280;50516;52.272;5.136;2024-03-29T02:18:51;98955.84;;;9.27;73.21
64200;BME280;50516;52.272;5.136;2024-03-29T02:21:17;98958.16;;;9.34;73.01
64200;BME280;50516;52.272;5.136;2024-03-29T02:23:47;98961.50;;;9.31;73.35
64200;BME280;50516;52.272;5.136;2024-03-29T02:26:13;98953.16;;;9.36;73.01
64200;BME280;50516;52.272;5.136;2024-03-29T02:28:38;98966.56;;;9.38;73.05
64200;BME280;50516;52.272;5.136;2024-03-29T02:31:04;98960.09;;;9.34;73.09
64200;BME280;50516;52.272;5.136;2024-03-29T02:33:30;98960.47;;;9.41;73.08
64200;BME280;50516;52.272;5.136;2024-03-29T02:35:55;98964.19;;;9.45;73.03
64200;BME280;50516;52.272;5.136;2024-03-29T02:38:20;98969.78;;;9.40;73.52
64200;BME280;50516;52.272;5.136;2024-03-29T02:40:45;98972.78;;;9.29;73.55
64200;BME280;50516;52.272;5.136;2024-03-29T02:43:11;98974.13;;;9.18;73.29
64200;BME280;50516;52.272;5.136;2024-03-29T02:45:36;98984.03;;;9.28;73.42
64200;BME280;50516;52.272;5.136;2024-03-29T02:48:01;98981.00;;;9.16;73.49
64200;BME280;50516;52.272;5.136;2024-03-29T02:50:27;98987.94;;;9.13;74.05
64200;BME280;50516;52.272;5.136;2024-03-29T02:52:52;98983.44;;;9.17;74.08
64200;BME280;50516;52.272;5.136;2024-03-29T02:55:17;98978.81;;;9.18;73.81
64200;BME280;50516;52.272;5.136;2024-03-29T02:57:43;98982.75;;;9.25;73.89
64200;BME280;50516;52.272;5.136;2024-03-29T03:00:08;98977.78;;;9.13;73.70
64200;BME280;50516;52.272;5.136;2024-03-29T03:02:40;98975.22;;;9.17;73.48
64200;BME280;50516;52.272;5.136;2024-03-29T03:05:06;98980.09;;;9.20;73.58
64200;BME280;50516;52.272;5.136;2024-03-29T03:07:32;98984.59;;;9.16;73.12
64200;BME280;50516;52.272;5.136;2024-03-29T03:10:16;98982.84;;;9.20;73.42
64200;BME280;50516;52.272;5.136;2024-03-29T03:13:00;98967.66;;;9.14;73.43
64200;BME280;50516;52.272;5.136;2024-03-29T03:15:26;98970.31;;;9.05;73.94
64200;BME280;50516;52.272;5.136;2024-03-29T03:17:51;98977.41;;;9.06;73.90
64200;BME280;50516;52.272;5.136;2024-03-29T03:20:16;98986.28;;;9.26;73.58
64200;BME280;50516;52.272;5.136;2024-03-29T03:22:42;98995.78;;;9.28;73.53
64200;BME280;50516;52.272;5.136;2024-03-29T03:25:07;98987.91;;;9.27;73.12
64200;BME280;50516;52.272;5.136;2024-03-29T03:27:33;98983.72;;;9.29;73.33
64200;BME280;50516;52.272;5.136;2024-03-29T03:29:58;98984.31;;;9.40;72.48
64200;BME280;50516;52.272;5.136;2024-03-29T03:32:23;98992.97;;;9.34;72.52
64200;BME280;50516;52.272;5.136;2024-03-29T03:34:49;98998.22;;;9.30;72.36
64200;BME280;50516;52.272;5.136;2024-03-29T03:37:14;98991.16;;;9.29;71.90
64200;BME280;50516;52.272;5.136;2024-03-29T03:39:39;98994.38;;;9.31;72.08
64200;BME280;50516;52.272;5.136;2024-03-29T03:42:05;99002.59;;;9.31;71.91
64200;BME280;50516;52.272;5.136;2024-03-29T03:44:30;99006.75;;;9.28;72.57
64200;BME280;50516;52.272;5.136;2024-03-29T03:46:55;99000.66;;;9.31;72.18
64200;BME280;50516;52.272;5.136;2024-03-29T03:49:21;98990.47;;;9.46;71.67
64200;BME280;50516;52.272;5.136;2024-03-29T03:51:46;99006.72;;;9.42;71.76
64200;BME280;50516;52.272;5.136;2024-03-29T03:54:11;99010.25;;;9.43;72.05
64200;BME280;50516;52.272;5.136;2024-03-29T03:56:37;98997.28;;;9.35;71.91
64200;BME280;50516;52.272;5.136;2024-03-29T03:59:02;99003.31;;;9.37;72.29
64200;BME280;50516;52.272;5.136;2024-03-29T04:01:27;99011.00;;;9.35;72.27
64200;BME280;50516;52.272;5.136;2024-03-29T04:03:52;99007.75;;;9.32;72.00
64200;BME280;50516;52.272;5.136;2024-03-29T04:06:18;99012.94;;;9.20;72.44
64200;BME280;50516;52.272;5.136;2024-03-29T04:08:46;99014.34;;;9.31;72.15
64200;BME280;50516;52.272;5.136;2024-03-29T04:11:11;99006.03;;;9.37;72.08
64200;BME280;50516;52.272;5.136;2024-03-29T04:13:37;99015.84;;;9.38;71.98
64200;BME280;50516;52.272;5.136;2024-03-29T04:16:05;99016.53;;;9.21;72.80
64200;BME280;50516;52.272;5.136;2024-03-29T04:18:31;99004.13;;;9.23;72.12
64200;BME280;50516;52.272;5.136;2024-03-29T04:21:00;99012.81;;;9.39;72.05
64200;BME280;50516;52.272;5.136;2024-03-29T04:23:26;99008.78;;;9.37;72.38
64200;BME280;50516;52.272;5.136;2024-03-29T04:25:55;99017.91;;;9.32;72.37
64200;BME280;50516;52.272;5.136;2024-03-29T04:28:21;99006.69;;;9.20;72.56
64200;BME280;50516;52.272;5.136;2024-03-29T04:31:00;99004.00;;;9.28;73.32
64200;BME280;50516;52.272;5.136;2024-03-29T04:33:26;99011.91;;;9.30;73.38
64200;BME280;50516;52.272;5.136;2024-03-29T04:35:59;99001.91;;;9.25;73.19
64200;BME280;50516;52.272;5.136;2024-03-29T04:38:25;99004.34;;;9.27;73.62
64200;BME280;50516;52.272;5.136;2024-03-29T04:40:52;99013.31;;;9.41;73.34
64200;BME280;50516;52.272;5.136;2024-03-29T04:43:18;99007.50;;;9.43;72.44
64200;BME280;50516;52.272;5.136;2024-03-29T04:45:44;99012.22;;;9.28;73.36
64200;BME280;50516;52.272;5.136;2024-03-29T04:48:09;99002.41;;;9.27;73.20
64200;BME280;50516;52.272;5.136;2024-03-29T04:50:35;99004.75;;;9.20;73.79
64200;BME280;50516;52.272;5.136;2024-03-29T04:53:00;99008.50;;;9.24;73.84
64200;BME280;50516;52.272;5.136;2024-03-29T04:55:26;99005.50;;;9.35;73.66
64200;BME280;50516;52.272;5.136;2024-03-29T04:57:51;99013.84;;;9.29;73.65
64200;BME280;50516;52.272;5.136;2024-03-29T05:00:16;99019.50;;;9.33;73.91
64200;BME280;50516;52.272;5.136;2024-03-29T05:02:42;99020.56;;;9.23;74.17
64200;BME280;50516;52.272;5.136;2024-03-29T05:05:07;99014.03;;;9.33;74.25
64200;BME280;50516;52.272;5.136;2024-03-29T05:07:32;99024.94;;;9.24;74.33
64200;BME280;50516;52.272;5.136;2024-03-29T05:09:57;99032.34;;;9.24;74.96
64200;BME280;50516;52.272;5.136;2024-03-29T05:12:23;99031.50;;;9.23;75.65
64200;BME280;50516;52.272;5.136;2024-03-29T05:14:48;99035.69;;;9.21;75.51
64200;BME280;50516;52.272;5.136;2024-03-29T05:17:15;99035.16;;;9.32;75.71
64200;BME280;50516;52.272;5.136;2024-03-29T05:19:40;99041.66;;;9.37;75.59
64200;BME280;50516;52.272;5.136;2024-03-29T05:22:05;99045.09;;;9.28;76.00
64200;BME280;50516;52.272;5.136;2024-03-29T05:24:31;99038.78;;;9.42;75.90
64200;BME280;50516;52.272;5.136;2024-03-29T05:26:56;99031.97;;;9.39;76.06
64200;BME280;50516;52.272;5.136;2024-03-29T05:29:22;99039.94;;;9.27;76.50
64200;BME280;50516;52.272;5.136;2024-03-29T05:31:47;99046.09;;;9.32;76.98
64200;BME280;50516;52.272;5.136;2024-03-29T05:34:12;99037.28;;;9.36;76.64
64200;BME280;50516;52.272;5.136;2024-03-29T05:36:38;99038.91;;;9.37;76.87
64200;BME280;50516;52.272;5.136;2024-03-29T05:39:03;99043.06;;;9.20;77.65
64200;BME280;50516;52.272;5.136;2024-03-29T05:41:29;99049.56;;;9.24;77.51
64200;BME280;50516;52.272;5.136;2024-03-29T05:43:55;99055.53;;;9.26;77.56
64200;BME280;50516;52.272;5.136;2024-03-29T05:46:21;99046.72;;;9.29;78.44
64200;BME280;50516;52.272;5.136;2024-03-29T05:48:46;99050.78;;;9.32;78.69
64200;BME280;50516;52.272;5.136;2024-03-29T05:51:11;99049.84;;;9.37;79.35
64200;BME280;50516;52.272;5.136;2024-03-29T05:53:37;99064.22;;;9.42;80.48
64200;BME280;50516;52.272;5.136;2024-03-29T05:56:02;99063.56;;;9.37;81.18
64200;BME280;50516;52.272;5.136;2024-03-29T05:58:27;99058.44;;;9.44;81.13
64200;BME280;50516;52.272;5.136;2024-03-29T06:00:53;99073.47;;;9.46;82.22
64200;BME280;50516;52.272;5.136;2024-03-29T06:03:18;99065.88;;;9.29;83.18
64200;BME280;50516;52.272;5.136;2024-03-29T06:05:43;99066.28;;;9.37;83.78
64200;BME280;50516;52.272;5.136;2024-03-29T06:08:08;99066.06;;;9.47;83.72
64200;BME280;50516;52.272;5.136;2024-03-29T06:10:34;99079.50;;;9.57;83.84
64200;BME280;50516;52.272;5.136;2024-03-29T06:12:59;99073.03;;;9.53;84.74
64200;BME280;50516;52.272;5.136;2024-03-29T06:15:33;99077.97;;;9.65;84.43
64200;BME280;50516;52.272;5.136;2024-03-29T06:18:17;99075.69;;;9.81;84.56
64200;BME280;50516;52.272;5.136;2024-03-29T06:20:44;99062.03;;;9.67;85.62
64200;BME280;50516;52.272;5.136;2024-03-29T06:23:10;99073.69;;;9.73;85.69
64200;BME280;50516;52.272;5.136;2024-03-29T06:25:35;99085.53;;;9.45;87.48
64200;BME280;50516;52.272;5.136;2024-03-29T06:28:00;99071.16;;;9.62;86.93
64200;BME280;50516;52.272;5.136;2024-03-29T06:30:26;99087.84;;;9.52;87.07
64200;BME280;50516;52.272;5.136;2024-03-29T06:32:51;99096.44;;;9.37;88.42
64200;BME280;50516;52.272;5.136;2024-03-29T06:35:16;99094.97;;;9.53;88.28
64200;BME280;50516;52.272;5.136;2024-03-29T06:37:42;99092.09;;;9.58;87.54
64200;BME280;50516;52.272;5.136;2024-03-29T06:40:08;99102.16;;;9.63;87.97
64200;BME280;50516;52.272;5.136;2024-03-29T06:42:33;99104.81;;;9.77;87.75
64200;BME280;50516;52.272;5.136;2024-03-29T06:44:59;99111.16;;;10.00;86.71
64200;BME280;50516;52.272;5.136;2024-03-29T06:47:25;99101.88;;;10.10;86.40
64200;BME280;50516;52.272;5.136;2024-03-29T06:49:50;99106.34;;;10.05;86.34
64200;BME280;50516;52.272;5.136;2024-03-29T06:52:16;99096.22;;;10.06;87.01
64200;BME280;50516;52.272;5.136;2024-03-29T06:54:42;99083.53;;;10.19;86.29
64200;BME280;50516;52.272;5.136;2024-03-29T06:57:07;99091.03;;;10.27;86.33
64200;BME280;50516;52.272;5.136;2024-03-29T06:59:34;99093.38;;;10.43;85.57
64200;BME280;50516;52.272;5.136;2024-03-29T07:01:59;99088.06;;;10.46;85.48
64200;BME280;50516;52.272;5.136;2024-03-29T07:04:24;99089.00;;;10.64;84.94
64200;BME280;50516;52.272;5.136;2024-03-29T07:06:51;99095.63;;;10.72;84.14
64200;BME280;50516;52.272;5.136;2024-03-29T07:09:21;99095.31;;;10.73;83.36
64200;BME280;50516;52.272;5.136;2024-03-29T07:11:48;99113.28;;;10.80;83.80
64200;BME280;50516;52.272;5.136;2024-03-29T07:14:18;99106.34;;;10.82;83.89
64200;BME280;50516;52.272;5.136;2024-03-29T07:16:44;99115.72;;;10.90;83.17
64200;BME280;50516;52.272;5.136;2024-03-29T07:19:10;99109.75;;;10.88;83.49
64200;BME280;50516;52.272;5.136;2024-03-29T07:21:44;99116.03;;;10.88;83.77
64200;BME280;50516;52.272;5.136;2024-03-29T07:24:09;99104.41;;;10.83;84.00
64200;BME280;50516;52.272;5.136;2024-03-29T07:26:35;99102.00;;;10.90;83.02
64200;BME280;50516;52.272;5.136;2024-03-29T07:29:01;99103.53;;;11.05;82.71
64200;BME280;50516;52.272;5.136;2024-03-29T07:31:27;99103.78;;;10.94;82.53
64200;BME280;50516;52.272;5.136;2024-03-29T07:33:52;99113.97;;;10.94;82.65
64200;BME280;50516;52.272;5.136;2024-03-29T07:36:17;99118.41;;;11.12;82.41
64200;BME280;50516;52.272;5.136;2024-03-29T07:38:43;99134.47;;;11.37;81.59
64200;BME280;50516;52.272;5.136;2024-03-29T07:41:11;99141.78;;;11.50;80.52
64200;BME280;50516;52.272;5.136;2024-03-29T07:44:00;99145.97;;;11.56;80.18
64200;BME280;50516;52.272;5.136;2024-03-29T07:46:35;99142.91;;;11.58;80.06
64200;BME280;50516;52.272;5.136;2024-03-29T07:49:01;99142.91;;;11.49;80.70
64200;BME280;50516;52.272;5.136;2024-03-29T07:51:28;99143.91;;;11.70;80.45
64200;BME280;50516;52.272;5.136;2024-03-29T07:53:54;99148.66;;;12.05;78.91
64200;BME280;50516;52.272;5.136;2024-03-29T07:56:19;99155.94;;;12.27;78.28
64200;BME280;50516;52.272;5.136;2024-03-29T07:58:46;99145.19;;;12.60;76.92
64200;BME280;50516;52.272;5.136;2024-03-29T08:01:26;99139.78;;;12.82;76.50
64200;BME280;50516;52.272;5.136;2024-03-29T08:03:51;99129.81;;;13.07;75.48
64200;BME280;50516;52.272;5.136;2024-03-29T08:06:18;99121.03;;;12.75;75.20
64200;BME280;50516;52.272;5.136;2024-03-29T08:08:44;99125.28;;;12.64;76.23
64200;BME280;50516;52.272;5.136;2024-03-29T08:11:10;99122.34;;;12.69;74.87
64200;BME280;50516;52.272;5.136;2024-03-29T08:13:35;99117.66;;;12.69;74.65
64200;BME280;50516;52.272;5.136;2024-03-29T08:16:01;99113.09;;;13.12;74.13
64200;BME280;50516;52.272;5.136;2024-03-29T08:18:27;99119.66;;;13.28;72.98
64200;BME280;50516;52.272;5.136;2024-03-29T08:20:53;99130.69;;;13.37;72.87
64200;BME280;50516;52.272;5.136;2024-03-29T08:23:24;99134.91;;;13.35;71.98
64200;BME280;50516;52.272;5.136;2024-03-29T08:25:49;99139.63;;;13.25;72.10
64200;BME280;50516;52.272;5.136;2024-03-29T08:28:16;99143.63;;;12.98;72.81
64200;BME280;50516;52.272;5.136;2024-03-29T08:30:42;99129.66;;;12.65;72.95
64200;BME280;50516;52.272;5.136;2024-03-29T08:33:07;99135.63;;;12.67;73.81
64200;BME280;50516;52.272;5.136;2024-03-29T08:35:33;99136.44;;;12.67;73.89
64200;BME280;50516;52.272;5.136;2024-03-29T08:37:59;99144.19;;;12.74;73.82
64200;BME280;50516;52.272;5.136;2024-03-29T08:40:26;99146.03;;;13.00;73.57
64200;BME280;50516;52.272;5.136;2024-03-29T08:42:54;99154.63;;;12.98;73.16
64200;BME280;50516;52.272;5.136;2024-03-29T08:45:19;99170.09;;;12.90;72.97
64200;BME280;50516;52.272;5.136;2024-03-29T08:47:46;99166.91;;;13.09;72.74
64200;BME280;50516;52.272;5.136;2024-03-29T08:50:11;99166.34;;;13.33;71.85
64200;BME280;50516;52.272;5.136;2024-03-29T08:52:38;99179.28;;;13.42;71.67
64200;BME280;50516;52.272;5.136;2024-03-29T08:55:05;99172.16;;;13.41;72.09
64200;BME280;50516;52.272;5.136;2024-03-29T08:57:30;99176.38;;;13.38;71.28
64200;BME280;50516;52.272;5.136;2024-03-29T08:59:55;99177.28;;;13.51;71.85
64200;BME280;50516;52.272;5.136;2024-03-29T09:02:20;99167.63;;;13.66;71.08
64200;BME280;50516;52.272;5.136;2024-03-29T09:04:46;99170.34;;;13.75;71.59
64200;BME280;50516;52.272;5.136;2024-03-29T09:07:11;99171.03;;;13.72;71.31
64200;BME280;50516;52.272;5.136;2024-03-29T09:09:36;99172.44;;;13.78;71.12
64200;BME280;50516;52.272;5.136;2024-03-29T09:12:05;99178.56;;;14.04;70.60
64200;BME280;50516;52.272;5.136;2024-03-29T09:14:30;99185.25;;;13.82;69.89
64200;BME280;50516;52.272;5.136;2024-03-29T09:16:56;99182.34;;;14.00;69.85
64200;BME280;50516;52.272;5.136;2024-03-29T09:19:21;99179.56;;;14.21;70.16
64200;BME280;50516;52.272;5.136;2024-03-29T09:21:46;99173.44;;;14.36;69.50
64200;BME280;50516;52.272;5.136;2024-03-29T09:24:12;99178.84;;;14.33;68.32
64200;BME280;50516;52.272;5.136;2024-03-29T09:26:37;99187.47;;;14.31;69.23
64200;BME280;50516;52.272;5.136;2024-03-29T09:29:03;99190.25;;;14.43;68.72
64200;BME280;50516;52.272;5.136;2024-03-29T09:31:29;99201.66;;;14.63;68.43
64200;BME280;50516;52.272;5.136;2024-03-29T09:33:54;99194.66;;;14.45;67.46
64200;BME280;50516;52.272;5.136;2024-03-29T09:36:23;99212.34;;;14.43;68.37
64200;BME280;50516;52.272;5.136;2024-03-29T09:38:52;99204.00;;;14.52;67.25
64200;BME280;50516;52.272;5.136;2024-03-29T09:41:18;99208.03;;;14.55;67.56
64200;BME280;50516;52.272;5.136;2024-03-29T09:43:46;99217.38;;;14.84;66.69
64200;BME280;50516;52.272;5.136;2024-03-29T09:46:16;99210.03;;;14.88;67.15
64200;BME280;50516;52.272;5.136;2024-03-29T09:48:42;99222.66;;;14.55;68.09
64200;BME280;50516;52.272;5.136;2024-03-29T09:51:11;99218.94;;;14.72;67.61
64200;BME280;50516;52.272;5.136;2024-03-29T09:53:40;99226.66;;;15.12;67.02
64200;BME280;50516;52.272;5.136;2024-03-29T09:56:07;99226.03;;;15.65;65.13
64200;BME280;50516;52.272;5.136;2024-03-29T09:58:33;99232.03;;;15.92;64.13
64200;BME280;50516;52.272;5.136;2024-03-29T10:00:59;99240.19;;;15.76;63.80
64200;BME280;50516;52.272;5.136;2024-03-29T10:03:25;99224.88;;;15.66;63.45
64200;BME280;50516;52.272;5.136;2024-03-29T10:05:59;99226.94;;;15.57;63.74
64200;BME280;50516;52.272;5.136;2024-03-29T10:08:29;99218.28;;;15.58;63.88
64200;BME280;50516;52.272;5.136;2024-03-29T10:10:56;99220.25;;;15.58;64.24
64200;BME280;50516;52.272;5.136;2024-03-29T10:13:22;99221.44;;;15.81;63.41
64200;BME280;50516;52.272;5.136;2024-03-29T10:15:51;99226.50;;;15.42;64.31
64200;BME280;50516;52.272;5.136;2024-03-29T10:18:18;99228.31;;;15.38;64.16
64200;BME280;50516;52.272;5.136;2024-03-29T10:20:45;99217.13;;;15.47;64.62
64200;BME280;50516;52.272;5.136;2024-03-29T10:23:10;99214.94;;;15.40;64.58
64200;BME280;50516;52.272;5.136;2024-03-29T10:25:36;99215.06;;;15.56;64.25
64200;BME280;50516;52.272;5.136;2024-03-29T10:28:01;99229.84;;;15.60;64.16
64200;BME280;50516;52.272;5.136;2024-03-29T10:30:28;99230.75;;;15.52;64.14
64200;BME280;50516;52.272;5.136;2024-03-29T10:32:57;99231.78;;;15.60;63.67
64200;BME280;50516;52.272;5.136;2024-03-29T10:35:22;99235.59;;;15.55;64.07
64200;BME280;50516;52.272;5.136;2024-03-29T10:37:49;99234.31;;;15.40;64.40
64200;BME280;50516;52.272;5.136;2024-03-29T10:40:15;99238.56;;;15.50;64.86
64200;BME280;50516;52.272;5.136;2024-03-29T10:42:42;99241.13;;;15.55;64.07
64200;BME280;50516;52.272;5.136;2024-03-29T10:45:09;99257.56;;;15.27;64.92
64200;BME280;50516;52.272;5.136;2024-03-29T10:47:35;99237.75;;;15.25;65.48
64200;BME280;50516;52.272;5.136;2024-03-29T10:50:01;99232.66;;;15.14;65.50
64200;BME280;50516;52.272;5.136;2024-03-29T10:52:30;99239.53;;;15.66;64.14
64200;BME280;50516;52.272;5.136;2024-03-29T10:54:56;99246.31;;;15.69;63.82
64200;BME280;50516;52.272;5.136;2024-03-29T10:57:26;99247.00;;;15.41;64.49
64200;BME280;50516;52.272;5.136;2024-03-29T11:02:45;99260.63;;;16.08;62.62
64200;BME280;50516;52.272;5.136;2024-03-29T11:05:14;99255.75;;;16.30;62.40
64200;BME280;50516;52.272;5.136;2024-03-29T11:07:41;99259.47;;;16.21;62.80
64200;BME280;50516;52.272;5.136;2024-03-29T11:10:12;99265.69;;;15.94;62.45
64200;BME280;50516;52.272;5.136;2024-03-29T11:12:47;99272.28;;;15.77;63.06
64200;BME280;50516;52.272;5.136;2024-03-29T11:15:21;99285.50;;;15.71;63.61
64200;BME280;50516;52.272;5.136;2024-03-29T11:17:48;99280.44;;;15.73;63.49
64200;BME280;50516;52.272;5.136;2024-03-29T11:20:15;99274.66;;;15.66;63.26
64200;BME280;50516;52.272;5.136;2024-03-29T11:22:43;99273.78;;;15.86;63.59
64200;BME280;50516;52.272;5.136;2024-03-29T11:25:10;99282.16;;;16.27;62.56
64200;BME280;50516;52.272;5.136;2024-03-29T11:27:38;99269.13;;;16.28;62.93
64200;BME280;50516;52.272;5.136;2024-03-29T11:30:04;99270.53;;;16.09;63.36
64200;BME280;50516;52.272;5.136;2024-03-29T11:32:35;99274.44;;;16.20;63.20
64200;BME280;50516;52.272;5.136;2024-03-29T11:35:00;99271.63;;;16.45;61.98
64200;BME280;50516;52.272;5.136;2024-03-29T11:37:30;99276.13;;;16.50;62.44
64200;BME280;50516;52.272;5.136;2024-03-29T11:39:58;99283.00;;;16.68;61.73
64200;BME280;50516;52.272;5.136;2024-03-29T11:42:46;99274.72;;;15.91;62.45
64200;BME280;50516;52.272;5.136;2024-03-29T11:45:12;99275.50;;;16.03;61.88
64200;BME280;50516;52.272;5.136;2024-03-29T11:47:40;99262.59;;;16.08;61.22
64200;BME280;50516;52.272;5.136;2024-03-29T11:50:09;99261.97;;;16.27;61.11
64200;BME280;50516;52.272;5.136;2024-03-29T11:52:34;99263.28;;;16.57;61.08
64200;BME280;50516;52.272;5.136;2024-03-29T11:55:01;99274.78;;;16.72;60.30
64200;BME280;50516;52.272;5.136;2024-03-29T11:57:29;99276.38;;;16.85;60.29
64200;BME280;50516;52.272;5.136;2024-03-29T11:59:54;99259.34;;;16.99;59.47
64200;BME280;50516;52.272;5.136;2024-03-29T12:02:20;99266.13;;;17.02;59.88
64200;BME280;50516;52.272;5.136;2024-03-29T12:04:45;99278.13;;;17.06;59.30
64200;BME280;50516;52.272;5.136;2024-03-29T12:07:11;99280.00;;;17.02;58.64
64200;BME280;50516;52.272;5.136;2024-03-29T12:09:36;99277.47;;;16.96;58.56
64200;BME280;50516;52.272;5.136;2024-03-29T12:12:05;99282.41;;;17.03;58.45
64200;BME280;50516;52.272;5.136;2024-03-29T12:14:31;99290.75;;;16.63;59.50
64200;BME280;50516;52.272;5.136;2024-03-29T12:17:00;99296.00;;;16.80;58.89
64200;BME280;50516;52.272;5.136;2024-03-29T12:19:26;99298.88;;;16.43;60.23
64200;BME280;50516;52.272;5.136;2024-03-29T12:21:55;99301.28;;;16.45;61.10
64200;BME280;50516;52.272;5.136;2024-03-29T12:24:21;99295.91;;;16.23;61.04
64200;BME280;50516;52.272;5.136;2024-03-29T12:26:48;99283.78;;;16.28;61.28
64200;BME280;50516;52.272;5.136;2024-03-29T12:29:15;99278.38;;;16.19;61.02
64200;BME280;50516;52.272;5.136;2024-03-29T12:31:40;99274.25;;;16.01;61.31
64200;BME280;50516;52.272;5.136;2024-03-29T12:34:06;99282.09;;;15.86;61.82
64200;BME280;50516;52.272;5.136;2024-03-29T12:36:32;99284.06;;;15.86;61.77
64200;BME280;50516;52.272;5.136;2024-03-29T12:38:58;99291.19;;;15.75;61.79
64200;BME280;50516;52.272;5.136;2024-03-29T12:41:29;99287.81;;;15.69;60.33
64200;BME280;50516;52.272;5.136;2024-03-29T12:43:54;99294.75;;;15.75;60.34
64200;BME280;50516;52.272;5.136;2024-03-29T12:46:19;99295.25;;;16.02;59.78
64200;BME280;50516;52.272;5.136;2024-03-29T12:48:45;99299.63;;;16.15;59.62
64200;BME280;50516;52.272;5.136;2024-03-29T12:51:10;99296.97;;;16.59;58.68
64200;BME280;50516;52.272;5.136;2024-03-29T12:53:39;99292.00;;;16.65;58.02
64200;BME280;50516;52.272;5.136;2024-03-29T12:56:04;99289.97;;;16.90;57.67
64200;BME280;50516;52.272;5.136;2024-03-29T12:58:30;99293.72;;;17.10;57.41
64200;BME280;50516;52.272;5.136;2024-03-29T13:00:55;99280.34;;;17.44;56.61
64200;BME280;50516;52.272;5.136;2024-03-29T13:03:20;99281.44;;;17.72;56.46